sensor_id;sensor_type;location;lat;lon;timestamp;P1;durP1;ratioP1;P2;durP2;ratioP2
76332;SDS011;71254;53.010;6.508;2024-01-25T00:00:21;23.38;;;5.80;;
76332;SDS011;71254;53.010;6.508;2024-01-25T00:02:47;23.40;;;5.50;;
76332;SDS011;71254;53.010;6.508;2024-01-25T00:05:12;21.30;;;5.30;;
76332;SDS011;71254;53.010;6.508;2024-01-25T00:07:45;24.13;;;6.22;;
76332;SDS011;71254;53.010;6.508;2024-01-25T00:10:11;21.70;;;5.70;;
76332;SDS011;71254;53.010;6.508;2024-01-25T00:12:37;23.23;;;5.97;;
76332;SDS011;71254;53.010;6.508;2024-01-25T00:15:02;27.77;;;6.97;;
76332;SDS011;71254;53.010;6.508;2024-01-25T00:17:31;23.10;;;5.53;;
76332;SDS011;71254;53.010;6.508;2024-01-25T00:19:56;21.90;;;5.38;;
76332;SDS011;71254;53.010;6.508;2024-01-25T00:22:22;17.73;;;5.07;;
76332;SDS011;71254;53.010;6.508;2024-01-25T00:24:47;31.77;;;6.32;;
76332;SDS011;71254;53.010;6.508;2024-01-25T00:27:13;23.42;;;5.65;;
76332;SDS011;71254;53.010;6.508;2024-01-25T00:29:38;27.20;;;5.70;;
76332;SDS011;71254;53.010;6.508;2024-01-25T00:32:09;24.77;;;5.70;;
76332;SDS011;71254;53.010;6.508;2024-01-25T00:34:35;25.15;;;5.32;;
76332;SDS011;71254;53.010;6.508;2024-01-25T00:37:01;24.83;;;5.43;;
76332;SDS011;71254;53.010;6.508;2024-01-25T00:39:27;21.67;;;5.80;;
76332;SDS011;71254;53.010;6.508;2024-01-25T00:41:53;25.48;;;5.82;;
76332;SDS011;71254;53.010;6.508;2024-01-25T00:44:27;23.20;;;5.88;;
76332;SDS011;71254;53.010;6.508;2024-01-25T00:46:54;22.67;;;6.25;;
76332;SDS011;71254;53.010;6.508;2024-01-25T00:49:20;33.75;;;7.00;;
76332;SDS011;71254;53.010;6.508;2024-01-25T00:51:46;23.98;;;6.20;;
76332;SDS011;71254;53.010;6.508;2024-01-25T00:54:13;26.98;;;6.10;;
76332;SDS011;71254;53.010;6.508;2024-01-25T00:56:39;21.00;;;5.40;;
76332;SDS011;71254;53.010;6.508;2024-01-25T00:59:05;18.75;;;5.25;;
76332;SDS011;71254;53.010;6.508;2024-01-25T01:01:31;29.67;;;6.18;;
76332;SDS011;71254;53.010;6.508;2024-01-25T01:03:57;20.30;;;5.72;;
76332;SDS011;71254;53.010;6.508;2024-01-25T01:06:24;25.00;;;5.47;;
76332;SDS011;71254;53.010;6.508;2024-01-25T01:08:50;22.55;;;5.75;;
76332;SDS011;71254;53.010;6.508;2024-01-25T01:11:16;25.40;;;6.63;;
76332;SDS011;71254;53.010;6.508;2024-01-25T01:13:42;25.88;;;6.00;;
76332;SDS011;71254;53.010;6.508;2024-01-25T01:16:07;29.38;;;6.18;;
76332;SDS011;71254;53.010;6.508;2024-01-25T01:18:33;23.58;;;5.93;;
76332;SDS011;71254;53.010;6.508;2024-01-25T01:20:59;26.67;;;6.13;;
76332;SDS011;71254;53.010;6.508;2024-01-25T01:23:25;25.52;;;6.13;;
76332;SDS011;71254;53.010;6.508;2024-01-25T01:25:50;27.63;;;6.25;;
76332;SDS011;71254;53.010;6.508;2024-01-25T01:28:16;27.52;;;6.88;;
76332;SDS011;71254;53.010;6.508;2024-01-25T01:30:42;27.52;;;6.82;;
76332;SDS011;71254;53.010;6.508;2024-01-25T01:33:08;22.42;;;6.40;;
76332;SDS011;71254;53.010;6.508;2024-01-25T01:35:34;27.05;;;5.45;;
76332;SDS011;71254;53.010;6.508;2024-01-25T01:38:00;26.20;;;6.35;;
76332;SDS011;71254;53.010;6.508;2024-01-25T01:40:26;23.85;;;5.72;;
76332;SDS011;71254;53.010;6.508;2024-01-25T01:42:51;24.60;;;5.55;;
76332;SDS011;71254;53.010;6.508;2024-01-25T01:45:23;31.27;;;6.40;;
76332;SDS011;71254;53.010;6.508;2024-01-25T01:47:48;31.92;;;7.47;;
76332;SDS011;71254;53.010;6.508;2024-01-25T01:50:14;27.88;;;7.25;;
76332;SDS011;71254;53.010;6.508;2024-01-25T01:52:40;24.52;;;5.85;;
76332;SDS011;71254;53.010;6.508;2024-01-25T01:55:07;29.92;;;7.25;;
76332;SDS011;71254;53.010;6.508;2024-01-25T01:57:33;31.23;;;7.50;;
76332;SDS011;71254;53.010;6.508;2024-01-25T02:00:00;30.35;;;6.45;;
76332;SDS011;71254;53.010;6.508;2024-01-25T02:02:29;25.00;;;6.05;;
76332;SDS011;71254;53.010;6.508;2024-01-25T02:04:55;29.38;;;7.68;;
76332;SDS011;71254;53.010;6.508;2024-01-25T02:07:21;24.23;;;5.80;;
76332;SDS011;71254;53.010;6.508;2024-01-25T02:09:46;28.67;;;6.85;;
76332;SDS011;71254;53.010;6.508;2024-01-25T02:12:15;27.23;;;6.50;;
76332;SDS011;71254;53.010;6.508;2024-01-25T02:14:42;35.00;;;7.43;;
76332;SDS011;71254;53.010;6.508;2024-01-25T02:17:08;35.50;;;8.10;;
76332;SDS011;71254;53.010;6.508;2024-01-25T02:19:33;26.85;;;6.70;;
76332;SDS011;71254;53.010;6.508;2024-01-25T02:21:59;24.55;;;6.18;;
76332;SDS011;71254;53.010;6.508;2024-01-25T02:24:26;29.05;;;7.10;;
76332;SDS011;71254;53.010;6.508;2024-01-25T02:26:51;24.38;;;6.43;;
76332;SDS011;71254;53.010;6.508;2024-01-25T02:29:17;28.45;;;6.80;;
76332;SDS011;71254;53.010;6.508;2024-01-25T02:31:43;32.88;;;7.07;;
76332;SDS011;71254;53.010;6.508;2024-01-25T02:34:08;33.20;;;7.45;;
76332;SDS011;71254;53.010;6.508;2024-01-25T02:36:34;29.45;;;6.50;;
76332;SDS011;71254;53.010;6.508;2024-01-25T02:38:59;34.63;;;6.80;;
76332;SDS011;71254;53.010;6.508;2024-01-25T02:41:25;32.13;;;6.88;;
76332;SDS011;71254;53.010;6.508;2024-01-25T02:43:54;29.33;;;6.50;;
76332;SDS011;71254;53.010;6.508;2024-01-25T02:46:20;25.48;;;6.47;;
76332;SDS011;71254;53.010;6.508;2024-01-25T02:48:45;34.03;;;6.18;;
76332;SDS011;71254;53.010;6.508;2024-01-25T02:51:11;27.17;;;6.63;;
76332;SDS011;71254;53.010;6.508;2024-01-25T02:53:37;29.55;;;6.40;;
76332;SDS011;71254;53.010;6.508;2024-01-25T02:56:06;29.63;;;6.60;;
76332;SDS011;71254;53.010;6.508;2024-01-25T02:58:32;30.87;;;7.10;;
76332;SDS011;71254;53.010;6.508;2024-01-25T03:00:58;28.65;;;7.78;;
76332;SDS011;71254;53.010;6.508;2024-01-25T03:03:23;34.65;;;7.68;;
76332;SDS011;71254;53.010;6.508;2024-01-25T03:05:51;29.67;;;6.90;;
76332;SDS011;71254;53.010;6.508;2024-01-25T03:08:17;27.23;;;6.70;;
76332;SDS011;71254;53.010;6.508;2024-01-25T03:10:42;29.85;;;6.60;;
76332;SDS011;71254;53.010;6.508;2024-01-25T03:13:08;29.38;;;6.85;;
76332;SDS011;71254;53.010;6.508;2024-01-25T03:15:33;33.50;;;6.85;;
76332;SDS011;71254;53.010;6.508;2024-01-25T03:17:59;29.30;;;6.28;;
76332;SDS011;71254;53.010;6.508;2024-01-25T03:20:25;28.42;;;6.65;;
76332;SDS011;71254;53.010;6.508;2024-01-25T03:22:50;28.73;;;6.53;;
76332;SDS011;71254;53.010;6.508;2024-01-25T03:25:16;24.45;;;6.47;;
76332;SDS011;71254;53.010;6.508;2024-01-25T03:27:41;35.25;;;6.40;;
76332;SDS011;71254;53.010;6.508;2024-01-25T03:30:07;27.13;;;6.32;;
76332;SDS011;71254;53.010;6.508;2024-01-25T03:32:33;34.63;;;6.70;;
76332;SDS011;71254;53.010;6.508;2024-01-25T03:34:59;36.60;;;7.22;;
76332;SDS011;71254;53.010;6.508;2024-01-25T03:37:25;28.55;;;6.93;;
76332;SDS011;71254;53.010;6.508;2024-01-25T03:39:51;32.35;;;7.22;;
76332;SDS011;71254;53.010;6.508;2024-01-25T03:42:16;26.67;;;6.78;;
76332;SDS011;71254;53.010;6.508;2024-01-25T03:44:42;31.10;;;6.82;;
76332;SDS011;71254;53.010;6.508;2024-01-25T03:47:09;26.85;;;6.20;;
76332;SDS011;71254;53.010;6.508;2024-01-25T03:49:35;22.30;;;6.75;;
76332;SDS011;71254;53.010;6.508;2024-01-25T03:52:02;23.85;;;6.90;;
76332;SDS011;71254;53.010;6.508;2024-01-25T03:54:29;27.15;;;6.55;;
76332;SDS011;71254;53.010;6.508;2024-01-25T03:56:54;30.08;;;7.10;;
76332;SDS011;71254;53.010;6.508;2024-01-25T03:59:20;34.50;;;7.28;;
76332;SDS011;71254;53.010;6.508;2024-01-25T04:01:46;32.95;;;7.88;;
76332;SDS011;71254;53.010;6.508;2024-01-25T04:04:12;31.92;;;6.72;;
76332;SDS011;71254;53.010;6.508;2024-01-25T04:06:43;23.67;;;6.88;;
76332;SDS011;71254;53.010;6.508;2024-01-25T04:09:11;27.92;;;7.32;;
76332;SDS011;71254;53.010;6.508;2024-01-25T04:11:37;24.20;;;6.28;;
76332;SDS011;71254;53.010;6.508;2024-01-25T04:14:03;28.85;;;6.22;;
76332;SDS011;71254;53.010;6.508;2024-01-25T04:16:29;34.45;;;6.78;;
76332;SDS011;71254;53.010;6.508;2024-01-25T04:18:55;30.48;;;7.90;;
76332;SDS011;71254;53.010;6.508;2024-01-25T04:21:21;34.45;;;7.05;;
76332;SDS011;71254;53.010;6.508;2024-01-25T04:23:47;40.15;;;7.22;;
76332;SDS011;71254;53.010;6.508;2024-01-25T04:26:13;25.10;;;6.00;;
76332;SDS011;71254;53.010;6.508;2024-01-25T04:28:39;27.85;;;7.07;;
76332;SDS011;71254;53.010;6.508;2024-01-25T04:31:04;30.95;;;6.50;;
76332;SDS011;71254;53.010;6.508;2024-01-25T04:33:30;35.85;;;6.78;;
76332;SDS011;71254;53.010;6.508;2024-01-25T04:35:56;35.83;;;6.70;;
76332;SDS011;71254;53.010;6.508;2024-01-25T04:38:21;22.38;;;6.15;;
76332;SDS011;71254;53.010;6.508;2024-01-25T04:40:47;26.08;;;5.95;;
76332;SDS011;71254;53.010;6.508;2024-01-25T04:43:13;28.10;;;7.13;;
76332;SDS011;71254;53.010;6.508;2024-01-25T04:45:39;27.73;;;7.20;;
76332;SDS011;71254;53.010;6.508;2024-01-25T04:48:05;27.35;;;6.65;;
76332;SDS011;71254;53.010;6.508;2024-01-25T04:50:31;35.03;;;6.82;;
76332;SDS011;71254;53.010;6.508;2024-01-25T04:52:57;30.23;;;6.75;;
76332;SDS011;71254;53.010;6.508;2024-01-25T04:55:22;31.60;;;7.30;;
76332;SDS011;71254;53.010;6.508;2024-01-25T04:57:48;31.67;;;6.18;;
76332;SDS011;71254;53.010;6.508;2024-01-25T05:00:18;23.98;;;6.00;;
76332;SDS011;71254;53.010;6.508;2024-01-25T05:02:44;32.38;;;6.30;;
76332;SDS011;71254;53.010;6.508;2024-01-25T05:05:09;29.08;;;6.57;;
76332;SDS011;71254;53.010;6.508;2024-01-25T05:07:35;29.25;;;7.25;;
76332;SDS011;71254;53.010;6.508;2024-01-25T05:10:01;26.67;;;6.97;;
76332;SDS011;71254;53.010;6.508;2024-01-25T05:12:27;35.83;;;8.00;;
76332;SDS011;71254;53.010;6.508;2024-01-25T05:14:52;25.98;;;7.05;;
76332;SDS011;71254;53.010;6.508;2024-01-25T05:17:18;35.78;;;6.60;;
76332;SDS011;71254;53.010;6.508;2024-01-25T05:19:44;32.70;;;6.85;;
76332;SDS011;71254;53.010;6.508;2024-01-25T05:22:10;31.17;;;8.00;;
76332;SDS011;71254;53.010;6.508;2024-01-25T05:24:35;30.38;;;6.60;;
76332;SDS011;71254;53.010;6.508;2024-01-25T05:27:01;32.88;;;6.45;;
76332;SDS011;71254;53.010;6.508;2024-01-25T05:29:27;30.33;;;6.63;;
76332;SDS011;71254;53.010;6.508;2024-01-25T05:31:52;29.35;;;7.50;;
76332;SDS011;71254;53.010;6.508;2024-01-25T05:34:18;26.80;;;6.28;;
76332;SDS011;71254;53.010;6.508;2024-01-25T05:36:44;29.13;;;6.45;;
76332;SDS011;71254;53.010;6.508;2024-01-25T05:39:09;36.58;;;7.70;;
76332;SDS011;71254;53.010;6.508;2024-01-25T05:41:35;33.35;;;7.40;;
76332;SDS011;71254;53.010;6.508;2024-01-25T05:44:00;30.20;;;6.13;;
76332;SDS011;71254;53.010;6.508;2024-01-25T05:46:26;27.92;;;6.50;;
76332;SDS011;71254;53.010;6.508;2024-01-25T05:48:52;39.83;;;8.82;;
76332;SDS011;71254;53.010;6.508;2024-01-25T05:51:17;34.15;;;7.13;;
76332;SDS011;71254;53.010;6.508;2024-01-25T05:53:43;33.80;;;6.40;;
76332;SDS011;71254;53.010;6.508;2024-01-25T05:56:09;32.35;;;7.35;;
76332;SDS011;71254;53.010;6.508;2024-01-25T05:58:34;33.28;;;7.97;;
76332;SDS011;71254;53.010;6.508;2024-01-25T06:01:00;31.38;;;6.40;;
76332;SDS011;71254;53.010;6.508;2024-01-25T06:03:26;29.30;;;6.90;;
76332;SDS011;71254;53.010;6.508;2024-01-25T06:05:52;35.72;;;7.00;;
76332;SDS011;71254;53.010;6.508;2024-01-25T06:08:18;30.60;;;7.13;;
76332;SDS011;71254;53.010;6.508;2024-01-25T06:10:43;31.15;;;7.30;;
76332;SDS011;71254;53.010;6.508;2024-01-25T06:13:09;33.08;;;7.03;;
76332;SDS011;71254;53.010;6.508;2024-01-25T06:15:34;33.65;;;6.97;;
76332;SDS011;71254;53.010;6.508;2024-01-25T06:18:00;27.02;;;6.82;;
76332;SDS011;71254;53.010;6.508;2024-01-25T06:20:26;29.77;;;7.57;;
76332;SDS011;71254;53.010;6.508;2024-01-25T06:22:51;31.02;;;7.32;;
76332;SDS011;71254;53.010;6.508;2024-01-25T06:25:17;37.15;;;8.27;;
76332;SDS011;71254;53.010;6.508;2024-01-25T06:27:43;39.20;;;7.90;;
76332;SDS011;71254;53.010;6.508;2024-01-25T06:30:08;38.20;;;7.10;;
76332;SDS011;71254;53.010;6.508;2024-01-25T06:32:34;31.27;;;7.60;;
76332;SDS011;71254;53.010;6.508;2024-01-25T06:35:00;32.40;;;7.15;;
76332;SDS011;71254;53.010;6.508;2024-01-25T06:37:26;31.75;;;6.60;;
76332;SDS011;71254;53.010;6.508;2024-01-25T06:39:51;29.45;;;7.22;;
76332;SDS011;71254;53.010;6.508;2024-01-25T06:42:17;33.72;;;7.90;;
76332;SDS011;71254;53.010;6.508;2024-01-25T06:44:43;37.47;;;7.43;;
76332;SDS011;71254;53.010;6.508;2024-01-25T06:47:09;24.33;;;6.63;;
76332;SDS011;71254;53.010;6.508;2024-01-25T06:49:35;30.92;;;8.13;;
76332;SDS011;71254;53.010;6.508;2024-01-25T06:52:00;29.30;;;7.28;;
76332;SDS011;71254;53.010;6.508;2024-01-25T06:54:26;27.55;;;6.80;;
76332;SDS011;71254;53.010;6.508;2024-01-25T06:56:52;27.05;;;7.72;;
76332;SDS011;71254;53.010;6.508;2024-01-25T06:59:17;36.70;;;7.65;;
76332;SDS011;71254;53.010;6.508;2024-01-25T07:01:43;21.40;;;6.53;;
76332;SDS011;71254;53.010;6.508;2024-01-25T07:04:08;32.92;;;6.38;;
76332;SDS011;71254;53.010;6.508;2024-01-25T07:06:34;25.52;;;6.75;;
76332;SDS011;71254;53.010;6.508;2024-01-25T07:09:00;30.10;;;6.93;;
76332;SDS011;71254;53.010;6.508;2024-01-25T07:11:25;29.55;;;6.90;;
76332;SDS011;71254;53.010;6.508;2024-01-25T07:13:51;22.90;;;6.05;;
76332;SDS011;71254;53.010;6.508;2024-01-25T07:16:17;28.40;;;7.15;;
76332;SDS011;71254;53.010;6.508;2024-01-25T07:18:44;34.22;;;6.65;;
76332;SDS011;71254;53.010;6.508;2024-01-25T07:21:10;33.22;;;7.40;;
76332;SDS011;71254;53.010;6.508;2024-01-25T07:23:36;39.42;;;7.63;;
76332;SDS011;71254;53.010;6.508;2024-01-25T07:26:01;37.67;;;8.35;;
76332;SDS011;71254;53.010;6.508;2024-01-25T07:28:27;39.53;;;7.13;;
76332;SDS011;71254;53.010;6.508;2024-01-25T07:30:52;34.75;;;7.90;;
76332;SDS011;71254;53.010;6.508;2024-01-25T07:33:18;30.90;;;7.00;;
76332;SDS011;71254;53.010;6.508;2024-01-25T07:35:44;35.28;;;7.20;;
76332;SDS011;71254;53.010;6.508;2024-01-25T07:38:13;34.80;;;7.82;;
76332;SDS011;71254;53.010;6.508;2024-01-25T07:40:39;38.03;;;8.07;;
76332;SDS011;71254;53.010;6.508;2024-01-25T07:43:05;36.10;;;7.78;;
76332;SDS011;71254;53.010;6.508;2024-01-25T07:45:31;33.70;;;7.80;;
76332;SDS011;71254;53.010;6.508;2024-01-25T07:47:57;32.05;;;6.97;;
76332;SDS011;71254;53.010;6.508;2024-01-25T07:50:23;36.67;;;8.45;;
76332;SDS011;71254;53.010;6.508;2024-01-25T07:52:48;36.53;;;9.30;;
76332;SDS011;71254;53.010;6.508;2024-01-25T07:55:18;33.20;;;7.57;;
76332;SDS011;71254;53.010;6.508;2024-01-25T07:57:43;31.95;;;7.63;;
76332;SDS011;71254;53.010;6.508;2024-01-25T08:00:09;32.67;;;7.70;;
76332;SDS011;71254;53.010;6.508;2024-01-25T08:02:35;44.10;;;7.95;;
76332;SDS011;71254;53.010;6.508;2024-01-25T08:05:01;40.95;;;8.88;;
76332;SDS011;71254;53.010;6.508;2024-01-25T08:07:28;34.17;;;8.52;;
76332;SDS011;71254;53.010;6.508;2024-01-25T08:09:53;35.75;;;8.52;;
76332;SDS011;71254;53.010;6.508;2024-01-25T08:12:23;29.45;;;8.30;;
76332;SDS011;71254;53.010;6.508;2024-01-25T08:14:52;39.88;;;8.02;;
76332;SDS011;71254;53.010;6.508;2024-01-25T08:17:17;28.30;;;7.82;;
76332;SDS011;71254;53.010;6.508;2024-01-25T08:19:43;41.70;;;8.43;;
76332;SDS011;71254;53.010;6.508;2024-01-25T08:22:09;36.35;;;8.45;;
76332;SDS011;71254;53.010;6.508;2024-01-25T08:24:35;33.08;;;7.80;;
76332;SDS011;71254;53.010;6.508;2024-01-25T08:27:00;36.17;;;8.13;;
76332;SDS011;71254;53.010;6.508;2024-01-25T08:29:26;38.22;;;7.85;;
76332;SDS011;71254;53.010;6.508;2024-01-25T08:31:52;32.58;;;8.00;;
76332;SDS011;71254;53.010;6.508;2024-01-25T08:34:17;36.97;;;8.40;;
76332;SDS011;71254;53.010;6.508;2024-01-25T08:36:43;32.97;;;7.50;;
76332;SDS011;71254;53.010;6.508;2024-01-25T08:39:08;42.35;;;9.27;;
76332;SDS011;71254;53.010;6.508;2024-01-25T08:41:34;33.63;;;8.90;;
76332;SDS011;71254;53.010;6.508;2024-01-25T08:44:00;40.10;;;8.80;;
76332;SDS011;71254;53.010;6.508;2024-01-25T08:46:25;42.03;;;8.98;;
76332;SDS011;71254;53.010;6.508;2024-01-25T08:48:51;36.63;;;7.50;;
76332;SDS011;71254;53.010;6.508;2024-01-25T08:51:17;33.63;;;8.60;;
76332;SDS011;71254;53.010;6.508;2024-01-25T08:53:42;30.10;;;8.20;;
76332;SDS011;71254;53.010;6.508;2024-01-25T08:56:08;29.80;;;8.23;;
76332;SDS011;71254;53.010;6.508;2024-01-25T08:58:34;38.85;;;8.35;;
76332;SDS011;71254;53.010;6.508;2024-01-25T09:01:00;33.45;;;7.30;;
76332;SDS011;71254;53.010;6.508;2024-01-25T09:03:25;39.42;;;8.48;;
76332;SDS011;71254;53.010;6.508;2024-01-25T09:05:51;35.78;;;7.82;;
76332;SDS011;71254;53.010;6.508;2024-01-25T09:08:17;44.40;;;8.90;;
76332;SDS011;71254;53.010;6.508;2024-01-25T09:10:42;37.40;;;7.70;;
76332;SDS011;71254;53.010;6.508;2024-01-25T09:13:09;32.45;;;8.25;;
76332;SDS011;71254;53.010;6.508;2024-01-25T09:15:35;46.05;;;8.15;;
76332;SDS011;71254;53.010;6.508;2024-01-25T09:18:00;29.02;;;7.07;;
76332;SDS011;71254;53.010;6.508;2024-01-25T09:20:26;33.58;;;8.25;;
76332;SDS011;71254;53.010;6.508;2024-01-25T09:22:52;36.75;;;8.27;;
76332;SDS011;71254;53.010;6.508;2024-01-25T09:25:20;33.30;;;7.72;;
76332;SDS011;71254;53.010;6.508;2024-01-25T09:27:47;29.67;;;7.93;;
76332;SDS011;71254;53.010;6.508;2024-01-25T09:30:13;41.28;;;8.18;;
76332;SDS011;71254;53.010;6.508;2024-01-25T09:32:39;36.28;;;8.48;;
76332;SDS011;71254;53.010;6.508;2024-01-25T09:35:05;30.30;;;7.75;;
76332;SDS011;71254;53.010;6.508;2024-01-25T09:37:31;33.97;;;8.20;;
76332;SDS011;71254;53.010;6.508;2024-01-25T09:39:56;32.45;;;7.40;;
76332;SDS011;71254;53.010;6.508;2024-01-25T09:42:24;32.15;;;7.10;;
76332;SDS011;71254;53.010;6.508;2024-01-25T09:44:50;30.35;;;8.93;;
76332;SDS011;71254;53.010;6.508;2024-01-25T09:47:22;31.80;;;8.75;;
76332;SDS011;71254;53.010;6.508;2024-01-25T09:49:48;30.10;;;6.90;;
76332;SDS011;71254;53.010;6.508;2024-01-25T09:52:16;38.38;;;7.78;;
76332;SDS011;71254;53.010;6.508;2024-01-25T09:54:44;24.75;;;7.45;;
76332;SDS011;71254;53.010;6.508;2024-01-25T09:57:16;37.55;;;8.35;;
76332;SDS011;71254;53.010;6.508;2024-01-25T09:59:51;35.80;;;8.43;;
76332;SDS011;71254;53.010;6.508;2024-01-25T10:02:18;34.08;;;8.68;;
76332;SDS011;71254;53.010;6.508;2024-01-25T10:04:48;34.78;;;8.27;;
76332;SDS011;71254;53.010;6.508;2024-01-25T10:07:34;34.00;;;8.30;;
76332;SDS011;71254;53.010;6.508;2024-01-25T10:10:03;36.53;;;8.25;;
76332;SDS011;71254;53.010;6.508;2024-01-25T10:12:30;28.67;;;9.07;;
76332;SDS011;71254;53.010;6.508;2024-01-25T10:14:56;31.08;;;8.15;;
76332;SDS011;71254;53.010;6.508;2024-01-25T10:17:22;34.85;;;8.82;;
76332;SDS011;71254;53.010;6.508;2024-01-25T10:19:47;39.08;;;9.07;;
76332;SDS011;71254;53.010;6.508;2024-01-25T10:22:13;33.13;;;7.57;;
76332;SDS011;71254;53.010;6.508;2024-01-25T10:24:39;39.65;;;8.63;;
76332;SDS011;71254;53.010;6.508;2024-01-25T10:27:07;27.83;;;8.77;;
76332;SDS011;71254;53.010;6.508;2024-01-25T10:29:36;29.20;;;8.40;;
76332;SDS011;71254;53.010;6.508;2024-01-25T10:32:02;31.67;;;8.48;;
76332;SDS011;71254;53.010;6.508;2024-01-25T10:34:29;31.80;;;8.18;;
76332;SDS011;71254;53.010;6.508;2024-01-25T10:36:56;32.35;;;8.75;;
76332;SDS011;71254;53.010;6.508;2024-01-25T10:39:25;37.33;;;9.32;;
76332;SDS011;71254;53.010;6.508;2024-01-25T10:41:51;31.55;;;8.15;;
76332;SDS011;71254;53.010;6.508;2024-01-25T10:44:17;34.55;;;8.88;;
76332;SDS011;71254;53.010;6.508;2024-01-25T10:46:46;33.65;;;7.22;;
76332;SDS011;71254;53.010;6.508;2024-01-25T10:49:12;35.20;;;8.40;;
76332;SDS011;71254;53.010;6.508;2024-01-25T10:51:38;33.45;;;7.93;;
76332;SDS011;71254;53.010;6.508;2024-01-25T10:54:07;34.03;;;8.18;;
76332;SDS011;71254;53.010;6.508;2024-01-25T10:56:36;32.17;;;8.73;;
76332;SDS011;71254;53.010;6.508;2024-01-25T10:59:03;31.95;;;8.55;;
76332;SDS011;71254;53.010;6.508;2024-01-25T11:01:29;35.70;;;8.05;;
76332;SDS011;71254;53.010;6.508;2024-01-25T11:03:55;29.58;;;8.07;;
76332;SDS011;71254;53.010;6.508;2024-01-25T11:06:21;30.10;;;8.35;;
76332;SDS011;71254;53.010;6.508;2024-01-25T11:08:47;31.73;;;8.60;;
76332;SDS011;71254;53.010;6.508;2024-01-25T11:11:13;34.30;;;7.65;;
76332;SDS011;71254;53.010;6.508;2024-01-25T11:13:41;31.17;;;8.80;;
76332;SDS011;71254;53.010;6.508;2024-01-25T11:16:17;25.85;;;7.40;;
76332;SDS011;71254;53.010;6.508;2024-01-25T11:18:50;30.45;;;8.75;;
76332;SDS011;71254;53.010;6.508;2024-01-25T11:21:27;29.10;;;8.73;;
76332;SDS011;71254;53.010;6.508;2024-01-25T11:24:14;24.70;;;8.25;;
76332;SDS011;71254;53.010;6.508;2024-01-25T11:26:53;35.97;;;9.10;;
76332;SDS011;71254;53.010;6.508;2024-01-25T11:29:19;31.48;;;9.73;;
76332;SDS011;71254;53.010;6.508;2024-01-25T11:31:48;26.83;;;8.98;;
76332;SDS011;71254;53.010;6.508;2024-01-25T11:34:15;31.95;;;9.15;;
76332;SDS011;71254;53.010;6.508;2024-01-25T11:36:43;30.90;;;8.63;;
76332;SDS011;71254;53.010;6.508;2024-01-25T11:39:09;27.48;;;9.60;;
76332;SDS011;71254;53.010;6.508;2024-01-25T11:41:40;27.95;;;8.85;;
76332;SDS011;71254;53.010;6.508;2024-01-25T11:44:08;32.92;;;9.63;;
76332;SDS011;71254;53.010;6.508;2024-01-25T11:46:34;32.63;;;10.18;;
76332;SDS011;71254;53.010;6.508;2024-01-25T11:49:00;28.88;;;9.43;;
76332;SDS011;71254;53.010;6.508;2024-01-25T11:51:27;34.00;;;9.55;;
76332;SDS011;71254;53.010;6.508;2024-01-25T11:53:55;24.33;;;8.80;;
76332;SDS011;71254;53.010;6.508;2024-01-25T11:56:21;26.80;;;8.10;;
76332;SDS011;71254;53.010;6.508;2024-01-25T11:58:51;30.65;;;8.48;;
76332;SDS011;71254;53.010;6.508;2024-01-25T12:01:18;25.23;;;8.00;;
76332;SDS011;71254;53.010;6.508;2024-01-25T12:03:45;26.85;;;8.32;;
76332;SDS011;71254;53.010;6.508;2024-01-25T12:06:11;27.45;;;8.30;;
76332;SDS011;71254;53.010;6.508;2024-01-25T12:08:37;31.70;;;8.07;;
76332;SDS011;71254;53.010;6.508;2024-01-25T12:11:09;28.52;;;8.23;;
76332;SDS011;71254;53.010;6.508;2024-01-25T12:13:38;28.30;;;7.65;;
76332;SDS011;71254;53.010;6.508;2024-01-25T12:16:05;27.27;;;8.13;;
76332;SDS011;71254;53.010;6.508;2024-01-25T12:18:32;24.02;;;7.15;;
76332;SDS011;71254;53.010;6.508;2024-01-25T12:20:59;23.15;;;7.72;;
76332;SDS011;71254;53.010;6.508;2024-01-25T12:23:36;26.77;;;7.78;;
76332;SDS011;71254;53.010;6.508;2024-01-25T12:26:06;26.88;;;7.97;;
76332;SDS011;71254;53.010;6.508;2024-01-25T12:28:33;28.00;;;8.20;;
76332;SDS011;71254;53.010;6.508;2024-01-25T12:31:00;24.83;;;7.30;;
76332;SDS011;71254;53.010;6.508;2024-01-25T12:33:26;22.25;;;7.35;;
76332;SDS011;71254;53.010;6.508;2024-01-25T12:35:52;24.63;;;7.30;;
76332;SDS011;71254;53.010;6.508;2024-01-25T12:38:21;20.60;;;6.25;;
76332;SDS011;71254;53.010;6.508;2024-01-25T12:40:49;27.40;;;7.78;;
76332;SDS011;71254;53.010;6.508;2024-01-25T12:43:15;29.75;;;7.80;;
76332;SDS011;71254;53.010;6.508;2024-01-25T12:45:41;27.00;;;7.93;;
76332;SDS011;71254;53.010;6.508;2024-01-25T12:48:07;22.60;;;6.93;;
76332;SDS011;71254;53.010;6.508;2024-01-25T12:50:34;22.65;;;7.10;;
76332;SDS011;71254;53.010;6.508;2024-01-25T12:53:00;24.35;;;7.10;;
76332;SDS011;71254;53.010;6.508;2024-01-25T12:55:27;22.17;;;6.10;;
76332;SDS011;71254;53.010;6.508;2024-01-25T12:57:53;26.65;;;6.60;;
76332;SDS011;71254;53.010;6.508;2024-01-25T13:00:19;24.92;;;6.35;;
76332;SDS011;71254;53.010;6.508;2024-01-25T13:02:47;22.42;;;6.82;;
76332;SDS011;71254;53.010;6.508;2024-01-25T13:05:15;34.40;;;7.45;;
76332;SDS011;71254;53.010;6.508;2024-01-25T13:07:41;26.08;;;7.28;;
76332;SDS011;71254;53.010;6.508;2024-01-25T13:10:10;26.40;;;7.03;;
76332;SDS011;71254;53.010;6.508;2024-01-25T13:12:36;33.35;;;8.32;;
76332;SDS011;71254;53.010;6.508;2024-01-25T13:15:03;22.23;;;7.03;;
76332;SDS011;71254;53.010;6.508;2024-01-25T13:17:29;22.08;;;7.18;;
76332;SDS011;71254;53.010;6.508;2024-01-25T13:19:56;26.88;;;7.10;;
76332;SDS011;71254;53.010;6.508;2024-01-25T13:22:22;20.13;;;7.03;;
76332;SDS011;71254;53.010;6.508;2024-01-25T13:24:49;24.52;;;7.15;;
76332;SDS011;71254;53.010;6.508;2024-01-25T13:27:15;27.42;;;7.63;;
76332;SDS011;71254;53.010;6.508;2024-01-25T13:29:41;30.75;;;7.78;;
76332;SDS011;71254;53.010;6.508;2024-01-25T13:32:07;21.75;;;7.03;;
76332;SDS011;71254;53.010;6.508;2024-01-25T13:34:33;22.10;;;8.15;;
76332;SDS011;71254;53.010;6.508;2024-01-25T13:37:00;25.45;;;7.47;;
76332;SDS011;71254;53.010;6.508;2024-01-25T13:39:26;23.60;;;7.47;;
76332;SDS011;71254;53.010;6.508;2024-01-25T13:41:53;23.83;;;7.72;;
76332;SDS011;71254;53.010;6.508;2024-01-25T13:44:18;28.25;;;7.68;;
76332;SDS011;71254;53.010;6.508;2024-01-25T13:46:44;21.92;;;7.50;;
76332;SDS011;71254;53.010;6.508;2024-01-25T13:49:09;23.38;;;7.78;;
76332;SDS011;71254;53.010;6.508;2024-01-25T13:51:35;29.08;;;7.35;;
76332;SDS011;71254;53.010;6.508;2024-01-25T13:54:01;19.90;;;6.82;;
76332;SDS011;71254;53.010;6.508;2024-01-25T13:56:26;24.65;;;7.00;;
76332;SDS011;71254;53.010;6.508;2024-01-25T13:58:52;21.67;;;6.25;;
76332;SDS011;71254;53.010;6.508;2024-01-25T14:01:17;27.30;;;6.18;;
76332;SDS011;71254;53.010;6.508;2024-01-25T14:03:44;22.08;;;5.93;;
76332;SDS011;71254;53.010;6.508;2024-01-25T14:06:10;21.98;;;7.22;;
76332;SDS011;71254;53.010;6.508;2024-01-25T14:08:35;27.48;;;6.55;;
76332;SDS011;71254;53.010;6.508;2024-01-25T14:11:02;18.52;;;6.70;;
76332;SDS011;71254;53.010;6.508;2024-01-25T14:13:28;23.60;;;6.90;;
76332;SDS011;71254;53.010;6.508;2024-01-25T14:15:54;19.33;;;6.45;;
76332;SDS011;71254;53.010;6.508;2024-01-25T14:18:20;24.02;;;5.95;;
76332;SDS011;71254;53.010;6.508;2024-01-25T14:20:45;19.60;;;5.93;;
76332;SDS011;71254;53.010;6.508;2024-01-25T14:23:11;22.75;;;6.60;;
76332;SDS011;71254;53.010;6.508;2024-01-25T14:25:36;23.67;;;6.03;;
76332;SDS011;71254;53.010;6.508;2024-01-25T14:28:02;21.13;;;5.85;;